createdAt,value
2018-07-09T00:00:57.139Z,91.25
2018-07-09T00:01:57.224Z,91.11
2018-07-09T00:02:57.194Z,91.36
2018-07-09T00:03:57.139Z,91.14
2018-07-09T00:04:57.136Z,91.11
2018-07-09T00:05:57.198Z,91.17
2018-07-09T00:06:57.259Z,91.20
2018-07-09T00:07:57.164Z,91.33
2018-07-09T00:08:57.202Z,91.41
2018-07-09T00:09:57.134Z,91.55
2018-07-09T00:10:57.210Z,91.63
2018-07-09T00:11:57.260Z,91.60
2018-07-09T00:12:57.206Z,91.65
2018-07-09T00:13:57.206Z,91.63
2018-07-09T00:14:57.205Z,91.47
2018-07-09T00:15:57.208Z,91.38
2018-07-09T00:16:57.209Z,91.33
2018-07-09T00:17:57.210Z,91.28
2018-07-09T00:18:57.158Z,91.47
2018-07-09T00:19:57.204Z,91.55
2018-07-09T00:20:57.133Z,91.36
2018-07-09T00:21:57.117Z,91.28
2018-07-09T00:22:57.167Z,91.20
2018-07-09T00:23:57.109Z,91.44
2018-07-09T00:24:57.119Z,91.47
2018-07-09T00:25:57.210Z,91.55
2018-07-09T00:26:57.086Z,91.63
2018-07-09T00:27:57.208Z,91.73
2018-07-09T00:28:57.161Z,91.84
2018-07-09T00:29:57.235Z,91.90
2018-07-09T00:30:57.145Z,92.01
2018-07-09T00:31:57.153Z,92.19
2018-07-09T00:32:57.219Z,92.22
2018-07-09T00:33:57.157Z,92.46
2018-07-09T00:34:57.156Z,92.43
2018-07-09T00:35:57.153Z,92.59
2018-07-09T00:36:57.231Z,92.73
2018-07-09T00:37:57.153Z,92.68
2018-07-09T00:38:57.248Z,92.78
2018-07-09T00:39:57.158Z,92.91
2018-07-09T00:40:57.201Z,92.86
2018-07-09T00:41:57.205Z,92.84
2018-07-09T00:42:57.257Z,92.97
2018-07-09T00:43:57.190Z,93.02
2018-07-09T00:44:57.184Z,93.02
2018-07-09T00:45:57.258Z,93.24
2018-07-09T00:46:57.181Z,93.35
2018-07-09T00:47:57.227Z,93.54
2018-07-09T00:48:57.231Z,93.48
2018-07-09T00:49:57.232Z,93.40
2018-07-09T00:50:57.173Z,93.81
2018-07-09T00:51:57.228Z,93.96
2018-07-09T00:52:57.228Z,94.29
2018-07-09T00:53:57.168Z,94.37
2018-07-09T00:54:57.237Z,94.48
2018-07-09T00:55:57.164Z,94.56
2018-07-09T00:56:57.236Z,94.48
2018-07-09T00:57:57.167Z,94.42
2018-07-09T00:58:57.268Z,94.34
2018-07-09T00:59:57.236Z,94.34
2018-07-09T01:00:57.196Z,94.21
2018-07-09T01:01:57.239Z,94.37
2018-07-09T01:02:57.281Z,94.23
2018-07-09T01:03:57.246Z,94.26
2018-07-09T01:04:57.263Z,94.31
2018-07-09T01:05:57.281Z,94.42
2018-07-09T01:06:57.249Z,94.56
2018-07-09T01:07:57.243Z,94.80
2018-07-09T01:08:57.257Z,94.96
2018-07-09T01:09:57.145Z,95.04
2018-07-09T01:10:57.201Z,95.12
2018-07-09T01:11:57.246Z,95.28
2018-07-09T01:12:57.318Z,95.37
2018-07-09T01:13:57.223Z,95.39
2018-07-09T01:14:57.151Z,95.42
2018-07-09T01:15:57.284Z,95.50
2018-07-09T01:16:57.189Z,95.61
2018-07-09T01:17:57.219Z,95.64
2018-07-09T01:18:57.183Z,95.88
2018-07-09T01:19:57.251Z,96.36
2018-07-09T01:20:57.188Z,96.47
2018-07-09T01:21:57.252Z,96.53
2018-07-09T01:22:57.147Z,96.61
2018-07-09T01:23:57.185Z,96.66
2018-07-09T01:24:57.252Z,96.61
2018-07-09T01:25:57.190Z,96.45
2018-07-09T01:26:57.253Z,96.36
2018-07-09T01:27:57.219Z,96.28
2018-07-09T01:28:57.255Z,96.26
2018-07-09T01:29:57.534Z,96.31
2018-07-09T01:30:57.288Z,96.50
2018-07-09T01:31:57.224Z,96.66
2018-07-09T01:32:57.284Z,96.83
2018-07-09T01:33:57.229Z,96.91
2018-07-09T01:34:57.234Z,96.96
2018-07-09T01:35:57.290Z,97.04
2018-07-09T01:36:57.232Z,97.10
2018-07-09T01:37:57.313Z,97.18
2018-07-09T01:38:57.230Z,97.34
2018-07-09T01:39:57.183Z,97.28
2018-07-09T01:40:57.168Z,97.23
2018-07-09T01:41:57.287Z,97.36
2018-07-09T01:42:57.240Z,97.66
2018-07-09T01:43:57.304Z,97.83
2018-07-09T01:44:57.266Z,97.93
2018-07-09T01:45:57.266Z,98.29
2018-07-09T01:46:57.265Z,98.53
2018-07-09T01:47:57.209Z,98.66
2018-07-09T01:48:57.269Z,98.80
2018-07-09T01:49:57.273Z,98.83
2018-07-09T01:50:57.208Z,98.83
2018-07-09T01:51:57.205Z,99.13
2018-07-09T01:52:57.270Z,99.18
2018-07-09T01:53:57.271Z,99.32
2018-07-09T01:54:57.203Z,99.62
2018-07-09T01:55:57.273Z,99.59
2018-07-09T01:56:57.212Z,99.64
2018-07-09T01:57:57.210Z,99.70
2018-07-09T01:58:57.179Z,99.75
2018-07-09T01:59:57.276Z,99.92
2018-07-09T02:00:57.294Z,99.99
2018-07-09T02:01:57.317Z,99.99
2018-07-09T02:02:57.282Z,99.99
2018-07-09T02:03:57.186Z,99.99
2018-07-09T02:04:57.280Z,99.99
2018-07-09T02:05:57.232Z,99.99
2018-07-09T02:06:57.201Z,99.99
2018-07-09T02:07:57.248Z,99.99
2018-07-09T02:08:57.147Z,99.99
2018-07-09T02:09:57.219Z,99.99
2018-07-09T02:10:57.268Z,99.99
2018-07-09T02:11:57.239Z,99.99
2018-07-09T02:12:57.238Z,99.99
2018-07-09T02:13:57.260Z,99.99
2018-07-09T02:14:57.159Z,99.99
2018-07-09T02:15:57.157Z,99.99
2018-07-09T02:16:57.273Z,99.99
2018-07-09T02:17:57.227Z,99.99
2018-07-09T02:18:57.163Z,99.99
2018-07-09T02:19:57.161Z,99.99
2018-07-09T02:20:57.159Z,99.99
2018-07-09T02:21:57.164Z,99.99
2018-07-09T02:22:57.228Z,99.99
2018-07-09T02:23:57.166Z,99.99
2018-07-09T02:24:57.250Z,99.99
2018-07-09T02:25:57.201Z,99.99
2018-07-09T02:26:57.189Z,99.99
2018-07-09T02:27:57.232Z,99.99
2018-07-09T02:28:57.290Z,99.99
2018-07-09T02:29:57.296Z,99.99
2018-07-09T02:30:57.238Z,99.99
2018-07-09T02:31:57.209Z,99.99
2018-07-09T02:32:57.272Z,99.99
2018-07-09T02:33:57.300Z,99.99
2018-07-09T02:34:57.323Z,99.99
2018-07-09T02:35:57.339Z,99.99
2018-07-09T02:36:57.321Z,99.99
2018-07-09T02:37:57.309Z,99.99
2018-07-09T02:38:57.299Z,99.99
2018-07-09T02:39:57.275Z,99.99
2018-07-09T02:40:57.363Z,99.99
2018-07-09T02:41:57.307Z,99.99
2018-07-09T02:42:57.207Z,99.99
2018-07-09T02:43:57.329Z,99.99
2018-07-09T02:44:57.339Z,99.99
2018-07-09T02:45:57.355Z,99.99
2018-07-09T02:46:57.206Z,99.99
2018-07-09T02:47:57.308Z,99.99
2018-07-09T02:48:57.289Z,99.99
2018-07-09T02:49:57.212Z,99.99
2018-07-09T02:50:57.343Z,99.99
2018-07-09T02:51:57.215Z,99.99
2018-07-09T02:52:57.220Z,99.99
2018-07-09T02:53:57.345Z,99.99
2018-07-09T02:54:57.258Z,99.99
2018-07-09T02:55:57.349Z,99.99
2018-07-09T02:56:57.292Z,99.99
2018-07-09T02:57:57.275Z,99.99
2018-07-09T02:58:57.277Z,99.99
2018-07-09T02:59:57.240Z,99.99
2018-07-09T03:00:57.351Z,99.99
2018-07-09T03:01:57.277Z,99.99
2018-07-09T03:02:57.248Z,99.99
2018-07-09T03:03:57.269Z,99.99
2018-07-09T03:04:57.240Z,99.99
2018-07-09T03:05:57.275Z,99.99
2018-07-09T03:06:57.337Z,99.99
2018-07-09T03:07:57.235Z,99.99
2018-07-09T03:08:57.260Z,99.99
2018-07-09T03:09:57.324Z,99.99
2018-07-09T03:10:57.328Z,99.99
2018-07-09T03:11:57.364Z,99.99
2018-07-09T03:12:57.326Z,99.99
2018-07-09T03:13:57.248Z,99.99
2018-07-09T03:14:57.346Z,99.99
2018-07-09T03:15:57.327Z,99.99
2018-07-09T03:16:57.293Z,99.99
2018-07-09T03:17:57.240Z,99.99
2018-07-09T03:18:57.376Z,99.99
2018-07-09T03:19:57.358Z,99.99
2018-07-09T03:20:57.297Z,99.99
2018-07-09T03:21:57.379Z,99.99
2018-07-09T03:22:57.370Z,99.99
2018-07-09T03:23:57.239Z,99.99
2018-07-09T03:24:57.333Z,99.99
2018-07-09T03:25:57.381Z,99.99
2018-07-09T03:26:57.241Z,99.99
2018-07-09T03:27:57.301Z,99.99
2018-07-09T03:28:57.269Z,99.99
2018-07-09T03:29:57.337Z,99.99
2018-07-09T03:30:57.267Z,99.99
2018-07-09T03:31:57.272Z,99.99
2018-07-09T03:32:57.338Z,99.99
2018-07-09T03:33:57.336Z,99.99
2018-07-09T03:34:57.272Z,99.99
2018-07-09T03:35:57.273Z,99.99
2018-07-09T03:36:57.337Z,99.99
2018-07-09T03:37:57.342Z,99.99
2018-07-09T03:38:57.325Z,99.99
2018-07-09T03:39:57.244Z,99.99
2018-07-09T03:40:57.250Z,99.99
2018-07-09T03:41:57.245Z,99.99
2018-07-09T03:42:57.250Z,99.99
2018-07-09T03:43:57.249Z,99.99
2018-07-09T03:44:57.254Z,99.99
2018-07-09T03:45:57.299Z,99.99
2018-07-09T03:46:57.348Z,99.99
2018-07-09T03:47:57.250Z,99.99
2018-07-09T03:48:57.349Z,99.99
2018-07-09T03:49:57.347Z,99.99
2018-07-09T03:50:57.284Z,99.99
2018-07-09T03:51:57.352Z,99.99
2018-07-09T03:52:57.285Z,99.99
2018-07-09T03:53:57.349Z,99.99
2018-07-09T03:54:57.349Z,99.99
2018-07-09T03:55:57.325Z,99.99
2018-07-09T03:56:57.288Z,99.99
2018-07-09T03:57:57.422Z,99.99
2018-07-09T03:58:57.353Z,99.99
2018-07-09T03:59:57.356Z,99.99
2018-07-09T04:00:57.290Z,99.99
2018-07-09T04:01:57.299Z,99.99
2018-07-09T04:02:57.296Z,99.99
2018-07-09T04:03:57.296Z,99.99
2018-07-09T04:04:57.356Z,99.99
2018-07-09T04:05:57.389Z,99.99
2018-07-09T04:06:57.303Z,99.99
2018-07-09T04:07:57.364Z,99.99
2018-07-09T04:08:57.312Z,99.99
2018-07-09T04:09:57.329Z,99.99
2018-07-09T04:10:57.339Z,99.99
2018-07-09T04:11:57.363Z,99.99
2018-07-09T04:12:57.374Z,99.99
2018-07-09T04:13:57.338Z,99.99
2018-07-09T04:14:57.393Z,99.99
2018-07-09T04:15:57.302Z,99.99
2018-07-09T04:16:57.393Z,99.99
2018-07-09T04:17:57.328Z,99.99
2018-07-09T04:18:57.327Z,99.99
2018-07-09T04:19:57.333Z,99.99
2018-07-09T04:20:57.463Z,99.99
2018-07-09T04:21:57.405Z,99.99
2018-07-09T04:22:57.371Z,99.99
2018-07-09T04:23:57.402Z,99.99
2018-07-09T04:24:57.313Z,99.99
2018-07-09T04:25:57.277Z,99.99
2018-07-09T04:26:57.391Z,99.99
2018-07-09T04:27:57.410Z,99.99
2018-07-09T04:28:57.315Z,99.99
2018-07-09T04:29:57.377Z,99.99
2018-07-09T04:30:57.311Z,99.99
2018-07-09T04:31:57.387Z,99.99
2018-07-09T04:32:57.308Z,99.99
2018-07-09T04:33:57.308Z,99.99
2018-07-09T04:34:57.316Z,99.99
2018-07-09T04:35:57.314Z,99.99
2018-07-09T04:36:57.383Z,99.99
2018-07-09T04:37:57.483Z,99.83
2018-07-09T04:38:57.381Z,99.45
2018-07-09T04:39:57.337Z,99.13
2018-07-09T04:40:57.285Z,98.80
2018-07-09T04:41:57.384Z,98.61
2018-07-09T04:42:57.369Z,98.48
2018-07-09T04:43:57.399Z,98.26
2018-07-09T04:44:57.302Z,98.12
2018-07-09T04:45:57.354Z,97.88
2018-07-09T04:46:57.415Z,97.47
2018-07-09T04:47:57.347Z,97.10
2018-07-09T04:48:57.298Z,96.55
2018-07-09T04:49:57.392Z,96.26
2018-07-09T04:50:57.371Z,96.07
2018-07-09T04:51:57.350Z,95.58
2018-07-09T04:52:57.352Z,95.18
2018-07-09T04:53:57.423Z,94.83
2018-07-09T04:54:57.390Z,94.21
2018-07-09T04:55:57.430Z,93.62
2018-07-09T04:56:57.366Z,93.40
2018-07-09T04:57:57.370Z,93.43
2018-07-09T04:58:57.421Z,93.10
2018-07-09T04:59:57.295Z,92.43
2018-07-09T05:00:57.432Z,91.63
2018-07-09T05:01:57.302Z,90.93
2018-07-09T05:02:57.397Z,90.63
2018-07-09T05:03:57.318Z,90.34
2018-07-09T05:04:57.416Z,90.26
2018-07-09T05:05:57.336Z,89.86
2018-07-09T05:06:57.374Z,89.94
2018-07-09T05:07:57.439Z,89.37
2018-07-09T05:08:57.370Z,89.54
2018-07-09T05:09:57.405Z,89.91
2018-07-09T05:10:57.338Z,90.07
2018-07-09T05:11:57.451Z,90.18
2018-07-09T05:12:57.382Z,90.13
2018-07-09T05:13:57.295Z,89.56
2018-07-09T05:14:57.431Z,89.08
2018-07-09T05:15:57.406Z,88.89
2018-07-09T05:16:57.340Z,89.32
2018-07-09T05:17:57.463Z,89.06
2018-07-09T05:18:57.341Z,87.10
2018-07-09T05:19:57.394Z,86.52
2018-07-09T05:20:57.366Z,86.73
2018-07-09T05:21:57.439Z,87.05
2018-07-09T05:22:57.390Z,87.45
2018-07-09T05:23:57.389Z,87.32
2018-07-09T05:24:57.421Z,87.24
2018-07-09T05:25:57.369Z,87.10
2018-07-09T05:26:57.338Z,87.05
2018-07-09T05:27:57.446Z,86.97
2018-07-09T05:28:57.316Z,87.05
2018-07-09T05:29:57.377Z,86.49
2018-07-09T05:30:57.384Z,86.65
2018-07-09T05:31:57.389Z,86.89
2018-07-09T05:32:57.317Z,86.73
2018-07-09T05:33:57.324Z,86.65
2018-07-09T05:34:57.389Z,86.49
2018-07-09T05:35:57.458Z,86.33
2018-07-09T05:36:57.449Z,86.63
2018-07-09T05:37:57.386Z,87.18
2018-07-09T05:38:57.392Z,87.34
2018-07-09T05:39:57.486Z,87.16
2018-07-09T05:40:57.384Z,86.52
2018-07-09T05:41:57.422Z,83.83
2018-07-09T05:42:57.457Z,83.49
2018-07-09T05:43:57.328Z,83.44
2018-07-09T05:44:57.331Z,83.99
2018-07-09T05:45:57.424Z,84.23
2018-07-09T05:46:57.525Z,84.20
2018-07-09T05:47:57.348Z,84.12
2018-07-09T05:48:57.337Z,83.86
2018-07-09T05:49:57.454Z,83.25
2018-07-09T05:50:57.394Z,82.77
2018-07-09T05:51:57.471Z,82.96
2018-07-09T05:52:57.347Z,81.60
2018-07-09T05:53:57.432Z,81.02
2018-07-09T05:54:57.355Z,81.16
2018-07-09T05:55:57.400Z,79.75
2018-07-09T05:56:57.399Z,77.20
2018-07-09T05:57:57.416Z,77.41
2018-07-09T05:58:57.487Z,76.39
2018-07-09T05:59:57.358Z,76.94
2018-07-09T06:00:57.339Z,76.34
2018-07-09T06:01:57.414Z,76.41
2018-07-09T06:02:57.410Z,75.05
2018-07-09T06:03:57.462Z,72.80
2018-07-09T06:04:57.464Z,73.03
2018-07-09T06:05:57.473Z,72.93
2018-07-09T06:06:57.435Z,72.93
2018-07-09T06:07:57.417Z,72.14
2018-07-09T06:08:57.458Z,71.70
2018-07-09T06:09:57.441Z,71.83
2018-07-09T06:10:57.413Z,72.61
2018-07-09T06:11:57.403Z,72.90
2018-07-09T06:12:57.443Z,72.75
2018-07-09T06:13:57.445Z,72.43
2018-07-09T06:14:57.415Z,72.75
2018-07-09T06:15:57.399Z,71.78
2018-07-09T06:16:57.425Z,70.56
2018-07-09T06:17:57.405Z,70.60
2018-07-09T06:18:57.418Z,71.03
2018-07-09T06:19:57.430Z,70.87
2018-07-09T06:20:57.412Z,72.46
2018-07-09T06:21:57.373Z,71.28
2018-07-09T06:22:57.427Z,70.97
2018-07-09T06:23:57.490Z,71.26
2018-07-09T06:24:57.482Z,70.66
2018-07-09T06:25:57.472Z,71.03
2018-07-09T06:26:57.424Z,70.97
2018-07-09T06:27:57.472Z,71.34
2018-07-09T06:28:57.419Z,70.97
2018-07-09T06:29:57.377Z,70.48
2018-07-09T06:30:57.320Z,71.03
2018-07-09T06:31:57.346Z,71.05
2018-07-09T06:32:57.410Z,71.10
2018-07-09T06:33:57.433Z,70.74
2018-07-09T06:34:57.433Z,70.89
2018-07-09T06:35:57.419Z,70.60
2018-07-09T06:36:57.354Z,70.50
2018-07-09T06:37:57.351Z,69.77
2018-07-09T06:38:57.352Z,70.82
2018-07-09T06:39:57.443Z,69.59
2018-07-09T06:40:57.369Z,68.32
2018-07-09T06:41:57.484Z,69.23
2018-07-09T06:42:57.520Z,68.81
2018-07-09T06:43:57.471Z,69.72
2018-07-09T06:44:57.437Z,69.77
2018-07-09T06:45:57.506Z,67.77
2018-07-09T06:46:57.373Z,66.17
2018-07-09T06:47:57.371Z,66.43
2018-07-09T06:48:57.374Z,67.23
2018-07-09T06:49:57.444Z,68.16
2018-07-09T06:50:57.448Z,69.10
2018-07-09T06:51:57.373Z,68.94
2018-07-09T06:52:57.431Z,69.70
2018-07-09T06:53:57.471Z,69.10
2018-07-09T06:54:57.379Z,67.33
2018-07-09T06:55:57.452Z,67.23
2018-07-09T06:56:57.374Z,65.91
2018-07-09T06:57:57.513Z,66.17
2018-07-09T06:58:57.377Z,65.73
2018-07-09T06:59:57.393Z,66.71
2018-07-09T07:00:57.401Z,66.45
2018-07-09T07:01:57.466Z,66.81
2018-07-09T07:02:57.472Z,65.96
2018-07-09T07:03:57.472Z,64.95
2018-07-09T07:04:57.470Z,64.23
2018-07-09T07:05:57.429Z,65.78
2018-07-09T07:06:57.347Z,64.57
2018-07-09T07:07:57.387Z,65.24
2018-07-09T07:08:57.552Z,64.38
2018-07-09T07:09:57.419Z,64.49
2018-07-09T07:10:57.510Z,66.40
2018-07-09T07:11:57.512Z,65.81
2018-07-09T07:12:57.517Z,65.73
2018-07-09T07:13:57.505Z,64.52
2018-07-09T07:14:57.463Z,65.11
2018-07-09T07:15:57.458Z,67.23
2018-07-09T07:16:57.524Z,65.60
2018-07-09T07:17:57.527Z,63.54
2018-07-09T07:18:57.524Z,65.60
2018-07-09T07:19:57.453Z,65.34
2018-07-09T07:20:57.576Z,64.23
2018-07-09T07:21:57.518Z,65.50
2018-07-09T07:22:57.488Z,63.54
2018-07-09T07:23:57.492Z,63.56
2018-07-09T07:24:57.450Z,63.92
2018-07-09T07:25:57.450Z,63.62
2018-07-09T07:26:57.474Z,62.22
2018-07-09T07:27:57.471Z,62.56
2018-07-09T07:28:57.542Z,61.27
2018-07-09T07:29:57.463Z,62.84
2018-07-09T07:30:57.497Z,62.74
2018-07-09T07:31:57.434Z,59.00
2018-07-09T07:32:57.433Z,59.20
2018-07-09T07:33:57.432Z,60.48
2018-07-09T07:34:57.434Z,56.80
2018-07-09T07:35:57.501Z,58.20
2018-07-09T07:36:57.437Z,57.21
2018-07-09T07:37:57.503Z,57.69
2018-07-09T07:38:57.448Z,56.77
2018-07-09T07:39:57.464Z,56.87
2018-07-09T07:40:57.505Z,57.95
2018-07-09T07:41:57.481Z,58.59
2018-07-09T07:42:57.528Z,58.48
2018-07-09T07:43:57.464Z,60.12
2018-07-09T07:44:57.551Z,59.76
2018-07-09T07:45:57.405Z,57.08
2018-07-09T07:46:57.432Z,56.49
2018-07-09T07:47:57.481Z,56.61
2018-07-09T07:48:57.509Z,55.22
2018-07-09T07:49:57.443Z,53.90
2018-07-09T07:50:57.517Z,55.78
2018-07-09T07:51:57.448Z,53.77
2018-07-09T07:52:57.445Z,55.88
2018-07-09T07:53:57.446Z,54.71
2018-07-09T07:54:57.522Z,55.70
2018-07-09T07:55:57.579Z,56.31
2018-07-09T07:56:57.514Z,57.64
2018-07-09T07:57:57.512Z,58.33
2018-07-09T07:58:57.450Z,57.69
2018-07-09T07:59:57.418Z,56.49
2018-07-09T08:00:57.490Z,55.83
2018-07-09T08:01:57.477Z,55.72
2018-07-09T08:02:57.615Z,56.57
2018-07-09T08:03:57.518Z,57.87
2018-07-09T08:04:57.517Z,57.71
2018-07-09T08:05:57.420Z,60.17
2018-07-09T08:06:57.543Z,60.89
2018-07-09T08:07:57.519Z,60.84
2018-07-09T08:08:57.493Z,61.38
2018-07-09T08:09:57.445Z,62.46
2018-07-09T08:10:57.496Z,61.09
2018-07-09T08:12:59.667Z,59.02
2018-07-09T08:13:13.735Z,60.09
2018-07-09T08:13:57.521Z,60.37
2018-07-09T08:14:57.490Z,57.84
2018-07-09T08:15:57.528Z,58.20
2018-07-09T08:16:57.506Z,55.09
2018-07-09T08:17:57.506Z,55.63
2018-07-09T08:18:57.496Z,54.08
2018-07-09T08:19:57.482Z,54.33
2018-07-09T08:20:57.530Z,53.97
2018-07-09T08:21:57.517Z,56.24
2018-07-09T08:22:57.460Z,55.85
2018-07-09T08:23:57.436Z,56.18
2018-07-09T08:24:57.541Z,56.90
2018-07-09T08:25:57.536Z,58.46
2018-07-09T08:26:57.439Z,59.40
2018-07-09T08:27:57.538Z,58.94
2018-07-09T08:28:57.432Z,58.94
2018-07-09T08:29:57.470Z,59.00
2018-07-09T08:30:57.472Z,58.17
2018-07-09T08:31:57.538Z,58.07
2018-07-09T08:32:57.479Z,58.40
2018-07-09T08:33:57.470Z,58.66
2018-07-09T08:34:57.427Z,58.10
2018-07-09T08:35:57.540Z,58.33
2018-07-09T08:36:57.540Z,58.84
2018-07-09T08:37:57.513Z,59.35
2018-07-09T08:38:57.481Z,60.09
2018-07-09T08:39:57.538Z,60.89
2018-07-09T08:40:57.545Z,59.81
2018-07-09T08:41:57.500Z,60.20
2018-07-09T08:42:57.548Z,58.81
2018-07-09T08:43:57.478Z,60.07
2018-07-09T08:44:57.546Z,60.45
2018-07-09T08:45:57.566Z,57.48
2018-07-09T08:46:57.480Z,55.70
2018-07-09T08:47:57.547Z,55.93
2018-07-09T08:48:57.480Z,55.19
2018-07-09T08:49:57.607Z,54.83
2018-07-09T08:50:57.479Z,55.30
2018-07-09T08:51:57.503Z,53.59
2018-07-09T08:52:57.536Z,54.66
2018-07-09T08:53:57.430Z,55.04
2018-07-09T08:54:57.544Z,55.85
2018-07-09T08:55:57.484Z,57.36
2018-07-09T08:56:57.458Z,56.82
2018-07-09T08:57:57.439Z,56.29
2018-07-09T08:58:57.522Z,56.18
2018-07-09T08:59:57.571Z,56.00
2018-07-09T09:00:57.497Z,56.06
2018-07-09T09:01:57.557Z,58.07
2018-07-09T09:02:57.556Z,54.86
2018-07-09T09:03:57.492Z,54.25
2018-07-09T09:04:57.494Z,56.08
2018-07-09T09:05:57.558Z,54.96
2018-07-09T09:06:57.502Z,52.85
2018-07-09T09:07:57.497Z,55.04
2018-07-09T09:08:57.563Z,52.96
2018-07-09T09:09:57.499Z,51.99
2018-07-09T09:10:57.498Z,51.87
2018-07-09T09:11:57.569Z,51.84
2018-07-09T09:12:57.563Z,51.62
2018-07-09T09:13:57.562Z,50.63
2018-07-09T09:14:57.500Z,52.02
2018-07-09T09:15:57.455Z,52.81
2018-07-09T09:16:57.510Z,53.87
2018-07-09T09:17:57.580Z,55.06
2018-07-09T09:18:57.502Z,56.52
2018-07-09T09:19:57.569Z,54.94
2018-07-09T09:20:57.547Z,54.66
2018-07-09T09:21:57.524Z,54.04
2018-07-09T09:22:57.592Z,52.63
2018-07-09T09:23:57.506Z,52.15
2018-07-09T09:24:57.533Z,51.84
2018-07-09T09:25:57.535Z,50.22
2018-07-09T09:26:57.588Z,51.99
2018-07-09T09:27:57.574Z,52.15
2018-07-09T09:28:57.574Z,54.30
2018-07-09T09:29:57.480Z,54.37
2018-07-09T09:30:57.575Z,54.63
2018-07-09T09:31:57.597Z,53.44
2018-07-09T09:32:57.482Z,53.01
2018-07-09T09:33:57.576Z,52.57
2018-07-09T09:34:57.543Z,51.89
2018-07-09T09:35:57.480Z,51.44
2018-07-09T09:36:57.559Z,52.15
2018-07-09T09:37:57.490Z,52.96
2018-07-09T09:38:57.610Z,51.66
2018-07-09T09:39:57.618Z,52.15
2018-07-09T09:40:57.559Z,52.22
2018-07-09T09:41:57.613Z,52.96
2018-07-09T09:42:57.504Z,53.69
2018-07-09T09:43:57.574Z,55.39
2018-07-09T09:44:57.491Z,54.89
2018-07-09T09:45:57.507Z,53.14
2018-07-09T09:46:57.490Z,54.63
2018-07-09T09:47:57.563Z,54.48
2018-07-09T09:48:57.551Z,52.81
2018-07-09T09:49:57.565Z,52.81
2018-07-09T09:50:57.486Z,52.43
2018-07-09T09:51:57.613Z,51.87
2018-07-09T09:52:57.574Z,51.33
2018-07-09T09:53:57.600Z,50.88
2018-07-09T09:54:57.630Z,51.26
2018-07-09T09:55:57.633Z,52.30
2018-07-09T09:56:57.625Z,54.17
2018-07-09T09:57:57.616Z,53.69
2018-07-09T09:58:57.571Z,51.06
2018-07-09T09:59:57.619Z,50.83
2018-07-09T10:00:57.597Z,49.97
2018-07-09T10:01:57.530Z,50.91
2018-07-09T10:02:57.531Z,51.04
2018-07-09T10:03:57.608Z,51.77
2018-07-09T10:04:57.534Z,50.93
2018-07-09T10:05:57.531Z,51.46
2018-07-09T10:06:57.622Z,49.87
2018-07-09T10:07:57.634Z,51.24
2018-07-09T10:08:57.535Z,50.93
2018-07-09T10:09:57.604Z,50.58
2018-07-09T10:10:57.510Z,51.41
2018-07-09T10:11:57.503Z,50.15
2018-07-09T10:12:57.527Z,52.37
2018-07-09T10:13:57.535Z,54.41
2018-07-09T10:14:57.795Z,49.27
2018-07-09T10:15:57.574Z,51.04
2018-07-09T10:16:57.675Z,49.64
2018-07-09T10:17:57.513Z,48.19
2018-07-09T10:18:57.607Z,49.60
2018-07-09T10:19:57.593Z,49.34
2018-07-09T10:20:57.505Z,50.35
2018-07-09T10:21:57.478Z,49.12
2018-07-09T10:22:57.746Z,48.89
2018-07-09T10:23:57.567Z,49.14
2018-07-09T10:24:57.632Z,49.97
2018-07-09T10:25:57.566Z,49.42
2018-07-09T10:26:57.510Z,50.22
2018-07-09T10:27:57.483Z,52.53
2018-07-09T10:28:57.484Z,50.96
2018-07-09T10:29:57.506Z,51.64
2018-07-09T10:30:57.584Z,51.11
2018-07-09T10:31:57.578Z,52.57
2018-07-09T10:32:57.652Z,54.30
2018-07-09T10:33:57.601Z,52.02
2018-07-09T10:34:57.644Z,52.32
2018-07-09T10:35:57.659Z,52.12
2018-07-09T10:36:57.653Z,50.48
2018-07-09T10:37:57.623Z,50.60
2018-07-09T10:38:57.666Z,50.71
2018-07-09T10:39:57.596Z,51.26
2018-07-09T10:40:57.563Z,53.09
2018-07-09T10:41:57.625Z,52.32
2018-07-09T10:42:57.610Z,53.62
2018-07-09T10:43:57.565Z,54.04
2018-07-09T10:44:57.527Z,53.51
2018-07-09T10:45:57.648Z,54.41
2018-07-09T10:46:57.606Z,53.84
2018-07-09T10:47:57.660Z,54.45
2018-07-09T10:48:57.550Z,54.20
2018-07-09T10:49:57.569Z,54.53
2018-07-09T10:50:57.633Z,54.48
2018-07-09T10:51:57.567Z,54.41
2018-07-09T10:52:57.629Z,54.61
2018-07-09T10:53:57.631Z,55.22
2018-07-09T10:54:57.512Z,54.15
2018-07-09T10:55:57.567Z,53.47
2018-07-09T10:56:57.638Z,54.08
2018-07-09T10:57:57.632Z,55.39
2018-07-09T10:58:57.569Z,53.95
2018-07-09T10:59:57.569Z,53.82
2018-07-09T11:00:57.640Z,52.78
2018-07-09T11:01:57.562Z,53.11
2018-07-09T11:02:57.535Z,54.17
2018-07-09T11:03:57.608Z,53.29
2018-07-09T11:04:57.596Z,53.75
2018-07-09T11:05:57.548Z,53.95
2018-07-09T11:06:57.637Z,54.08
2018-07-09T11:07:57.596Z,54.73
2018-07-09T11:08:57.680Z,54.20
2018-07-09T11:09:57.616Z,55.09
2018-07-09T11:10:57.664Z,55.70
2018-07-09T11:11:57.662Z,54.94
2018-07-09T11:12:57.608Z,55.65
2018-07-09T11:13:57.602Z,56.18
2018-07-09T11:14:57.661Z,56.00
2018-07-09T11:15:57.619Z,56.08
2018-07-09T11:16:57.626Z,55.55
2018-07-09T11:17:57.600Z,56.54
2018-07-09T11:18:57.623Z,56.74
2018-07-09T11:19:57.649Z,56.24
2018-07-09T11:20:57.650Z,57.10
2018-07-09T11:21:57.685Z,56.82
2018-07-09T11:22:57.685Z,56.33
2018-07-09T11:23:57.551Z,56.21
2018-07-09T11:24:57.621Z,56.52
2018-07-09T11:25:57.655Z,57.21
2018-07-09T11:26:57.560Z,57.36
2018-07-09T11:27:57.579Z,57.30
2018-07-09T11:28:57.653Z,58.15
2018-07-09T11:29:57.586Z,59.45
2018-07-09T11:30:57.594Z,58.48
2018-07-09T11:31:57.644Z,58.84
2018-07-09T11:32:57.584Z,57.84
2018-07-09T11:33:57.622Z,56.93
2018-07-09T11:34:57.567Z,57.15
2018-07-09T11:35:57.749Z,57.56
2018-07-09T11:36:57.621Z,57.26
2018-07-09T11:37:57.559Z,57.48
2018-07-09T11:38:57.587Z,57.64
2018-07-09T11:39:57.668Z,57.89
2018-07-09T11:40:57.618Z,57.08
2018-07-09T11:41:57.550Z,57.66
2018-07-09T11:42:57.600Z,58.17
2018-07-09T11:43:57.627Z,57.95
2018-07-09T11:44:57.687Z,57.89
2018-07-09T11:45:57.667Z,57.66
2018-07-09T11:46:57.601Z,57.92
2018-07-09T11:47:57.612Z,57.89
2018-07-09T11:48:57.668Z,57.79
2018-07-09T11:49:57.604Z,57.69
2018-07-09T11:50:57.619Z,58.25
2018-07-09T11:51:57.711Z,57.00
2018-07-09T11:52:57.700Z,57.54
2018-07-09T11:53:57.579Z,57.51
2018-07-09T11:54:57.652Z,57.15
2018-07-09T11:55:57.599Z,58.38
2018-07-09T11:56:57.578Z,58.07
2018-07-09T11:57:57.715Z,58.89
2018-07-09T11:58:57.763Z,59.50
2018-07-09T11:59:57.639Z,58.51
2018-07-09T12:00:57.617Z,58.61
2018-07-09T12:01:57.613Z,58.71
2018-07-09T12:02:57.677Z,58.48
2018-07-09T12:03:57.620Z,58.59
2018-07-09T12:04:57.683Z,58.92
2018-07-09T12:05:57.619Z,58.51
2018-07-09T12:06:57.612Z,58.66
2018-07-09T12:07:57.687Z,58.79
2018-07-09T12:08:57.684Z,58.84
2018-07-09T12:09:57.616Z,59.25
2018-07-09T12:10:57.551Z,60.66
2018-07-09T12:11:57.676Z,60.50
2018-07-09T12:12:57.611Z,59.45
2018-07-09T12:13:57.575Z,58.89
2018-07-09T12:14:57.622Z,59.35
2018-07-09T12:15:57.752Z,59.63
2018-07-09T12:16:57.675Z,59.61
2018-07-09T12:17:57.625Z,60.14
2018-07-09T12:18:57.677Z,60.05
2018-07-09T12:19:57.682Z,60.53
2018-07-09T12:20:57.686Z,60.48
2018-07-09T12:21:57.592Z,60.55
2018-07-09T12:22:57.619Z,60.45
2018-07-09T12:23:57.684Z,61.14
2018-07-09T12:24:57.626Z,61.50
2018-07-09T12:25:57.642Z,61.58
2018-07-09T12:26:57.628Z,62.20
2018-07-09T12:27:57.600Z,62.87
2018-07-09T12:28:57.685Z,62.14
2018-07-09T12:29:57.627Z,62.94
2018-07-09T12:30:57.729Z,63.35
2018-07-09T12:31:57.734Z,63.23
2018-07-09T12:32:57.673Z,63.30
2018-07-09T12:33:57.602Z,63.51
2018-07-09T12:34:57.714Z,63.46
2018-07-09T12:35:57.731Z,63.49
2018-07-09T12:36:57.610Z,63.74
2018-07-09T12:37:57.622Z,64.52
2018-07-09T12:38:57.610Z,64.08
2018-07-09T12:39:57.655Z,64.38
2018-07-09T12:40:57.744Z,64.42
2018-07-09T12:41:57.664Z,64.38
2018-07-09T12:42:57.608Z,64.62
2018-07-09T12:43:57.733Z,64.31
2018-07-09T12:44:57.705Z,64.13
2018-07-09T12:45:57.739Z,64.13
2018-07-09T12:46:57.667Z,63.79
2018-07-09T12:47:57.629Z,63.77
2018-07-09T12:48:57.610Z,64.02
2018-07-09T12:49:57.733Z,64.52
2018-07-09T12:50:57.733Z,63.35
2018-07-09T12:51:57.677Z,64.15
2018-07-09T12:52:57.711Z,63.77